createdAt,value
2019-01-18T00:00:32.334Z,1.70
2019-01-18T00:03:01.580Z,1.65
2019-01-18T00:05:31.824Z,1.30
2019-01-18T00:08:07.759Z,1.22
2019-01-18T00:10:54.722Z,1.65
2019-01-18T00:13:29.351Z,1.57
2019-01-18T00:16:06.647Z,1.50
2019-01-18T00:18:35.815Z,1.50
2019-01-18T00:21:04.849Z,1.62
2019-01-18T00:23:33.957Z,1.92
2019-01-18T00:26:08.598Z,1.70
2019-01-18T00:28:42.061Z,1.60
2019-01-18T00:31:11.406Z,1.50
2019-01-18T00:33:40.282Z,1.95
2019-01-18T00:36:09.436Z,1.40
2019-01-18T00:38:39.563Z,2.30
2019-01-18T00:41:10.233Z,1.80
2019-01-18T00:43:39.575Z,1.47
2019-01-18T00:46:08.596Z,1.55
2019-01-18T00:48:37.612Z,1.55
2019-01-18T00:51:07.794Z,1.62
2019-01-18T00:53:39.361Z,1.42
2019-01-18T00:56:08.386Z,1.70
2019-01-18T00:58:43.136Z,1.57
2019-01-18T01:01:12.164Z,0.98
2019-01-18T01:03:41.133Z,1.30
2019-01-18T01:06:10.195Z,1.15
2019-01-18T01:08:39.186Z,1.35
2019-01-18T01:11:08.614Z,1.42
2019-01-18T01:13:37.409Z,1.45
2019-01-18T01:16:06.744Z,1.72
2019-01-18T01:18:36.187Z,1.10
2019-01-18T01:21:05.444Z,0.90
2019-01-18T01:23:34.450Z,1.40
2019-01-18T01:26:03.375Z,1.30
2019-01-18T01:28:35.717Z,1.22
2019-01-18T01:31:05.536Z,1.12
2019-01-18T01:33:34.614Z,0.80
2019-01-18T01:36:06.357Z,1.00
2019-01-18T01:41:09.758Z,0.57
2019-01-18T01:43:45.048Z,0.60
2019-01-18T01:46:13.998Z,0.80
2019-01-18T01:48:49.686Z,0.68
2019-01-18T01:51:18.893Z,0.93
2019-01-18T01:53:47.993Z,0.50
2019-01-18T01:56:17.298Z,0.80
2019-01-18T01:58:46.325Z,0.93
2019-01-18T02:01:17.545Z,0.50
2019-01-18T02:03:57.798Z,0.62
2019-01-18T02:06:28.436Z,0.98
2019-01-18T02:08:57.806Z,0.60
2019-01-18T02:11:34.650Z,0.72
2019-01-18T02:14:04.049Z,0.88
2019-01-18T02:16:39.458Z,0.68
2019-01-18T02:19:09.998Z,1.12
2019-01-18T02:21:39.405Z,0.80
2019-01-18T02:24:08.402Z,0.70
2019-01-18T02:26:41.156Z,1.00
2019-01-18T02:29:10.696Z,1.02
2019-01-18T02:31:40.202Z,1.15
2019-01-18T02:34:08.947Z,0.62
2019-01-18T02:36:39.218Z,0.90
2019-01-18T02:39:08.692Z,0.90
2019-01-18T02:41:40.693Z,0.80
2019-01-18T02:44:10.012Z,0.68
2019-01-18T02:46:38.944Z,0.98
2019-01-18T02:49:07.918Z,1.00
2019-01-18T02:51:36.834Z,1.02
2019-01-18T02:54:06.109Z,1.00
2019-01-18T02:56:35.371Z,0.88
2019-01-18T02:59:08.672Z,0.85
2019-01-18T03:01:37.682Z,0.90
2019-01-18T03:04:06.906Z,1.10
2019-01-18T03:06:36.438Z,0.70
2019-01-18T03:09:08.178Z,1.25
2019-01-18T03:11:37.382Z,0.70
2019-01-18T03:14:06.543Z,0.75
2019-01-18T03:16:35.610Z,1.05
2019-01-18T03:19:07.699Z,1.00
2019-01-18T03:21:36.492Z,1.52
2019-01-18T03:24:09.130Z,1.02
2019-01-18T03:26:39.503Z,0.70
2019-01-18T03:29:08.836Z,0.62
2019-01-18T03:31:44.138Z,0.85
2019-01-18T03:34:13.269Z,0.90
2019-01-18T03:36:42.304Z,1.15
2019-01-18T03:39:12.042Z,1.55
2019-01-18T03:41:41.235Z,1.35
2019-01-18T03:44:10.296Z,1.65
2019-01-18T03:46:42.775Z,1.30
2019-01-18T03:49:14.607Z,1.50
2019-01-18T03:51:52.851Z,0.90
2019-01-18T03:54:24.227Z,0.90
2019-01-18T03:56:59.275Z,1.15
2019-01-18T03:59:32.075Z,0.60
2019-01-18T04:02:04.203Z,0.90
2019-01-18T04:04:35.831Z,0.62
2019-01-18T04:07:09.082Z,0.98
2019-01-18T04:09:43.649Z,0.65
2019-01-18T04:12:18.379Z,1.05
2019-01-18T04:14:47.421Z,1.27
2019-01-18T04:17:16.833Z,0.80
2019-01-18T04:19:51.351Z,0.90
2019-01-18T04:22:20.237Z,1.65
2019-01-18T04:24:49.272Z,1.20
2019-01-18T04:27:20.653Z,1.02
2019-01-18T04:29:49.882Z,0.90
2019-01-18T04:32:18.951Z,1.32
2019-01-18T04:34:47.900Z,1.67
2019-01-18T04:37:27.031Z,1.10
2019-01-18T04:39:56.009Z,2.77
2019-01-18T04:42:29.469Z,1.00
2019-01-18T04:45:01.019Z,1.00
2019-01-18T04:47:31.423Z,0.80
2019-01-18T04:50:14.066Z,0.93
2019-01-18T04:52:46.015Z,0.82
2019-01-18T04:55:15.728Z,0.70
2019-01-18T04:57:45.049Z,0.80
2019-01-18T05:00:20.267Z,0.40
2019-01-18T05:02:56.377Z,0.65
2019-01-18T05:05:46.636Z,0.50
2019-01-18T05:08:16.239Z,1.05
2019-01-18T05:10:45.414Z,1.10
2019-01-18T05:13:20.186Z,1.30
2019-01-18T05:15:51.095Z,0.90
2019-01-18T05:18:20.524Z,0.93
2019-01-18T05:21:02.829Z,0.85
2019-01-18T05:23:29.366Z,1.25
2019-01-18T05:26:03.294Z,0.80
2019-01-18T05:28:32.551Z,0.60
2019-01-18T05:34:19.033Z,0.62
2019-01-18T05:36:57.408Z,0.60
2019-01-18T05:39:26.482Z,1.30
2019-01-18T05:41:56.182Z,4.00
2019-01-18T05:44:25.356Z,0.70
2019-01-18T05:46:55.812Z,1.00
2019-01-18T05:49:40.472Z,1.00
2019-01-18T05:52:12.629Z,0.80
2019-01-18T05:54:41.701Z,0.72
2019-01-18T05:57:17.062Z,0.82
2019-01-18T05:59:46.209Z,0.60
2019-01-18T06:02:19.614Z,0.80
2019-01-18T06:04:49.986Z,1.10
2019-01-18T06:07:19.048Z,0.65
2019-01-18T06:09:49.970Z,0.85
2019-01-18T06:12:18.765Z,1.10
2019-01-18T06:14:57.606Z,0.90
2019-01-18T06:17:28.662Z,0.90
2019-01-18T06:19:58.846Z,0.98
2019-01-18T06:22:27.982Z,0.70
2019-01-18T06:24:58.641Z,1.02
2019-01-18T06:27:50.719Z,0.65
2019-01-18T06:33:06.500Z,0.60
2019-01-18T06:35:35.590Z,0.65
2019-01-18T06:38:06.443Z,0.50
2019-01-18T06:40:35.360Z,0.80
2019-01-18T06:43:04.815Z,0.82
2019-01-18T06:45:35.746Z,0.60
2019-01-18T06:48:08.878Z,0.90
2019-01-18T06:50:39.421Z,0.70
2019-01-18T06:53:08.361Z,0.80
2019-01-18T06:55:37.460Z,1.22
2019-01-18T06:58:06.286Z,0.88
2019-01-18T07:00:35.607Z,0.85
2019-01-18T07:03:11.540Z,0.90
2019-01-18T07:05:36.035Z,0.60
2019-01-18T07:08:06.737Z,0.53
2019-01-18T07:10:37.428Z,0.60
2019-01-18T07:13:09.927Z,0.60
2019-01-18T07:15:38.678Z,0.60
2019-01-18T07:18:07.643Z,0.68
2019-01-18T07:20:37.049Z,0.68
2019-01-18T07:23:05.911Z,0.80
2019-01-18T07:25:35.452Z,0.90
2019-01-18T07:28:04.491Z,0.70
2019-01-18T07:30:35.757Z,0.82
2019-01-18T07:33:08.849Z,0.60
2019-01-18T07:35:40.451Z,0.90
2019-01-18T07:38:09.590Z,0.50
2019-01-18T07:40:38.594Z,0.68
2019-01-18T07:43:07.470Z,0.70
2019-01-18T07:45:36.479Z,1.07
2019-01-18T07:48:14.641Z,0.68
2019-01-18T07:50:43.782Z,0.65
2019-01-18T07:53:12.626Z,1.32
2019-01-18T07:55:41.889Z,2.00
2019-01-18T07:58:11.529Z,1.02
2019-01-18T08:00:40.824Z,0.80
2019-01-18T08:03:14.186Z,0.72
2019-01-18T08:05:46.937Z,1.90
2019-01-18T08:08:16.037Z,0.70
2019-01-18T08:10:44.947Z,0.98
2019-01-18T08:13:13.982Z,0.93
2019-01-18T08:15:42.793Z,1.60
2019-01-18T08:18:41.977Z,1.15
2019-01-18T08:21:11.034Z,0.60
2019-01-18T08:23:40.368Z,0.53
2019-01-18T08:26:16.590Z,0.90
2019-01-18T08:28:45.460Z,1.10
2019-01-18T08:31:14.410Z,0.98
2019-01-18T08:33:43.523Z,1.45
2019-01-18T08:36:12.654Z,0.80
2019-01-18T08:38:41.589Z,1.10
2019-01-18T08:41:10.594Z,1.55
2019-01-18T08:43:39.541Z,0.90
2019-01-18T08:46:10.430Z,1.02
2019-01-18T08:48:41.334Z,0.70
2019-01-18T08:51:10.424Z,0.85
2019-01-18T08:53:39.594Z,0.60
2019-01-18T08:56:09.334Z,0.65
2019-01-18T08:58:40.300Z,1.82
2019-01-18T09:01:09.199Z,1.30
2019-01-18T09:03:39.984Z,1.40
2019-01-18T09:06:08.859Z,1.22
2019-01-18T09:08:37.646Z,1.45
2019-01-18T09:11:07.154Z,1.02
2019-01-18T09:13:38.524Z,0.93
2019-01-18T09:16:07.638Z,1.20
2019-01-18T09:18:36.503Z,1.00
2019-01-18T09:21:06.450Z,1.55
2019-01-18T09:23:35.782Z,1.37
2019-01-18T09:26:04.888Z,1.57
2019-01-18T09:28:33.867Z,1.27
2019-01-18T09:31:03.011Z,1.12
2019-01-18T09:33:31.892Z,1.77
2019-01-18T09:36:00.806Z,1.12
2019-01-18T09:38:29.598Z,1.85
2019-01-18T09:40:58.874Z,2.08
2019-01-18T09:43:29.130Z,1.77
2019-01-18T09:45:58.186Z,1.40
2019-01-18T09:48:28.278Z,2.40
2019-01-18T09:50:57.432Z,1.52
2019-01-18T09:53:26.842Z,1.30
2019-01-18T09:55:57.858Z,1.60
2019-01-18T09:58:26.928Z,1.47
2019-01-18T10:00:56.234Z,1.62
2019-01-18T10:03:28.928Z,1.70
2019-01-18T10:05:57.946Z,2.35
2019-01-18T10:08:26.993Z,1.22
2019-01-18T10:10:55.976Z,1.07
2019-01-18T10:13:24.774Z,1.37
2019-01-18T10:16:00.096Z,1.30
2019-01-18T10:18:28.971Z,0.85
2019-01-18T10:21:00.918Z,1.50
2019-01-18T10:23:29.893Z,1.40
2019-01-18T10:25:59.047Z,1.00
2019-01-18T10:28:28.351Z,0.95
2019-01-18T10:31:00.613Z,1.47
2019-01-18T10:33:31.810Z,0.90
2019-01-18T10:36:04.173Z,1.50
2019-01-18T10:38:33.286Z,1.85
2019-01-18T10:41:02.450Z,1.67
2019-01-18T10:43:31.476Z,1.25
2019-01-18T10:46:00.517Z,1.72
2019-01-18T10:48:29.778Z,1.85
2019-01-18T10:50:58.745Z,2.65
2019-01-18T10:53:27.795Z,2.33
2019-01-18T10:55:56.729Z,1.70
2019-01-18T10:58:26.198Z,1.67
2019-01-18T11:00:55.086Z,1.60
2019-01-18T11:03:24.325Z,1.90
2019-01-18T11:05:53.737Z,1.70
2019-01-18T11:08:24.688Z,1.72
2019-01-18T11:10:55.212Z,2.37
2019-01-18T11:13:26.059Z,1.65
2019-01-18T11:15:55.113Z,1.70
2019-01-18T11:18:24.155Z,1.92
2019-01-18T11:21:15.515Z,1.30
2019-01-18T11:23:44.749Z,1.90
2019-01-18T11:26:14.179Z,1.20
2019-01-18T11:28:43.237Z,1.10
2019-01-18T11:31:14.141Z,1.85
2019-01-18T11:33:43.468Z,1.50
2019-01-18T11:36:12.569Z,1.55
2019-01-18T11:38:47.675Z,1.10
2019-01-18T11:41:22.668Z,0.95
2019-01-18T11:43:54.993Z,1.02
2019-01-18T11:46:33.660Z,0.93
2019-01-18T11:49:02.621Z,1.45
2019-01-18T11:51:36.784Z,1.25
2019-01-18T11:54:05.973Z,1.80
2019-01-18T11:56:36.135Z,1.25
2019-01-18T11:59:05.418Z,1.25
2019-01-18T12:01:37.173Z,1.65
2019-01-18T12:04:09.239Z,0.95
2019-01-18T12:06:38.534Z,1.75
2019-01-18T12:09:08.832Z,1.50
2019-01-18T12:11:37.919Z,1.35
2019-01-18T12:14:06.838Z,1.10
2019-01-18T12:16:35.906Z,1.32
2019-01-18T12:19:05.239Z,1.30
2019-01-18T12:21:37.235Z,1.65
2019-01-18T12:24:09.423Z,1.30
2019-01-18T12:26:39.630Z,1.37
2019-01-18T12:29:08.541Z,0.80
2019-01-18T12:31:39.805Z,1.77
2019-01-18T12:34:09.950Z,1.27
2019-01-18T12:36:39.193Z,1.25
2019-01-18T12:39:11.026Z,1.40
2019-01-18T12:41:46.676Z,1.20
2019-01-18T12:44:19.054Z,1.62
2019-01-18T12:46:48.247Z,1.00
2019-01-18T12:49:19.799Z,1.10
2019-01-18T12:51:55.612Z,1.77
2019-01-18T12:54:25.039Z,1.12
2019-01-18T12:56:55.842Z,1.25
2019-01-18T12:59:32.358Z,1.57
2019-01-18T13:02:04.709Z,1.80
2019-01-18T13:04:50.812Z,1.55
2019-01-18T13:07:21.776Z,1.25
2019-01-18T13:09:52.791Z,1.17
2019-01-18T13:12:55.750Z,1.15
2019-01-18T13:15:29.185Z,1.40
2019-01-18T13:17:59.539Z,1.25
2019-01-18T13:20:29.114Z,1.32
2019-01-18T13:22:58.191Z,1.82
2019-01-18T13:25:29.330Z,1.52
2019-01-18T13:28:00.462Z,1.85
2019-01-18T13:30:29.502Z,1.75
2019-01-18T13:32:59.114Z,1.30
2019-01-18T13:35:33.328Z,1.60
2019-01-18T13:38:02.285Z,1.92
2019-01-18T13:40:39.893Z,1.50
2019-01-18T13:43:08.735Z,1.95
2019-01-18T13:45:38.286Z,2.10
2019-01-18T13:48:07.703Z,2.50
2019-01-18T13:50:39.360Z,1.50
2019-01-18T13:53:09.000Z,2.15
2019-01-18T13:55:41.333Z,2.15
2019-01-18T13:58:13.752Z,1.55
2019-01-18T14:00:46.378Z,1.50
2019-01-18T14:03:17.311Z,1.70
2019-01-18T14:05:46.594Z,1.90
2019-01-18T14:08:18.678Z,2.30
2019-01-18T14:10:48.006Z,1.60
2019-01-18T14:13:17.113Z,1.60
2019-01-18T14:15:49.724Z,2.15
2019-01-18T14:18:19.013Z,2.15
2019-01-18T14:20:48.211Z,2.08
2019-01-18T14:23:20.625Z,1.85
2019-01-18T14:25:54.191Z,1.90
2019-01-18T14:28:23.133Z,1.92
2019-01-18T14:30:52.293Z,3.00
2019-01-18T14:33:21.425Z,1.42
2019-01-18T14:35:50.633Z,2.12
2019-01-18T14:38:25.045Z,1.77
2019-01-18T14:40:50.931Z,1.95
2019-01-18T14:43:20.111Z,1.70
2019-01-18T14:45:49.027Z,1.60
2019-01-18T14:48:18.460Z,1.77
2019-01-18T14:50:47.626Z,1.70
2019-01-18T14:53:16.687Z,2.35
2019-01-18T14:55:47.155Z,1.95
2019-01-18T14:58:16.409Z,1.62
2019-01-18T15:00:45.371Z,1.75
2019-01-18T15:03:15.705Z,1.90
2019-01-18T15:06:00.222Z,2.45
2019-01-18T15:08:30.876Z,1.62
2019-01-18T15:11:03.931Z,2.50
2019-01-18T15:13:37.643Z,1.82
2019-01-18T15:16:28.903Z,1.70
2019-01-18T15:18:58.205Z,2.25
2019-01-18T15:21:27.159Z,4.60
2019-01-18T15:23:59.247Z,1.92
2019-01-18T15:26:35.637Z,2.70
2019-01-18T15:29:04.543Z,2.50
2019-01-18T15:31:33.809Z,3.25
2019-01-18T15:34:02.962Z,3.40
2019-01-18T15:36:33.232Z,3.42
2019-01-18T15:40:09.053Z,2.45
2019-01-18T15:42:39.086Z,2.60
2019-01-18T15:45:10.427Z,2.30
2019-01-18T15:47:42.246Z,2.67
2019-01-18T15:50:17.439Z,1.90
2019-01-18T15:52:46.326Z,2.37
2019-01-18T15:55:19.180Z,2.27
2019-01-18T15:57:51.467Z,2.33
2019-01-18T16:00:31.590Z,2.08
2019-01-18T16:03:00.806Z,3.52
2019-01-18T16:05:30.778Z,1.90
2019-01-18T16:08:00.057Z,2.20
2019-01-18T16:10:28.945Z,2.00
2019-01-18T16:12:57.882Z,1.50
2019-01-18T16:15:44.601Z,2.20
2019-01-18T16:18:20.284Z,1.70
2019-01-18T16:20:51.621Z,1.95
2019-01-18T16:23:20.666Z,2.00
2019-01-18T16:25:49.622Z,1.85
2019-01-18T16:28:18.701Z,1.50
2019-01-18T16:30:56.736Z,2.52
2019-01-18T16:33:26.322Z,2.30
2019-01-18T16:35:56.354Z,2.90
2019-01-18T16:38:25.207Z,2.92
2019-01-18T16:40:54.127Z,1.95
2019-01-18T16:43:25.979Z,2.35
2019-01-18T16:45:54.922Z,2.60
2019-01-18T16:48:23.862Z,2.42
2019-01-18T16:50:52.770Z,2.58
2019-01-18T16:53:21.617Z,2.52
2019-01-18T16:55:50.486Z,2.62
2019-01-18T16:58:28.844Z,2.85
2019-01-18T17:00:59.276Z,3.35
2019-01-18T17:03:30.622Z,2.15
2019-01-18T17:05:59.266Z,2.92
2019-01-18T17:08:28.395Z,2.80
2019-01-18T17:10:59.748Z,2.55
2019-01-18T17:13:32.041Z,2.85
2019-01-18T17:16:06.353Z,2.92
2019-01-18T17:18:35.615Z,1.80
2019-01-18T17:21:06.432Z,2.50
2019-01-18T17:23:35.566Z,2.60
2019-01-18T17:26:06.146Z,2.87
2019-01-18T17:28:35.489Z,2.83
2019-01-18T17:31:04.451Z,3.10
2019-01-18T17:33:37.077Z,3.85
2019-01-18T17:36:28.024Z,4.22
2019-01-18T17:39:18.056Z,4.85
2019-01-18T17:42:29.366Z,3.37
2019-01-18T17:45:20.491Z,3.27
2019-01-18T17:48:03.937Z,3.70
2019-01-18T17:51:09.125Z,4.10
2019-01-18T17:53:58.429Z,3.72
2019-01-18T17:56:52.019Z,2.75
2019-01-18T18:00:10.235Z,3.12
2019-01-18T18:02:58.997Z,3.08
2019-01-18T18:05:43.519Z,3.33
2019-01-18T18:08:38.275Z,4.33
2019-01-18T18:11:46.698Z,4.62
2019-01-18T18:14:37.107Z,4.55
2019-01-18T18:17:37.614Z,3.85
2019-01-18T18:20:41.818Z,2.80
2019-01-18T18:24:04.282Z,2.58
2019-01-18T18:27:08.990Z,3.50
2019-01-18T18:30:32.433Z,2.00
2019-01-18T18:33:37.733Z,2.50
2019-01-18T18:36:55.566Z,2.95
2019-01-18T18:40:21.134Z,3.25
2019-01-18T18:43:16.056Z,2.92
2019-01-18T18:46:28.091Z,3.70
2019-01-18T18:49:23.045Z,3.30
2019-01-18T18:52:22.400Z,3.37
2019-01-18T18:55:06.826Z,3.40
2019-01-18T18:58:13.087Z,3.55
2019-01-18T19:01:06.143Z,3.37
2019-01-18T19:04:09.110Z,3.10
2019-01-18T19:07:05.350Z,3.02
2019-01-18T19:10:01.461Z,3.77
2019-01-18T19:13:10.754Z,3.50
2019-01-18T19:16:10.778Z,3.75
2019-01-18T19:19:34.148Z,3.25
2019-01-18T19:22:33.241Z,3.05
2019-01-18T19:25:36.594Z,3.52
2019-01-18T19:28:36.618Z,4.85
2019-01-18T19:31:52.623Z,3.75
2019-01-18T19:35:23.614Z,3.92
2019-01-18T19:38:19.959Z,3.75
2019-01-18T19:41:42.102Z,4.30
2019-01-18T19:44:40.924Z,4.53
2019-01-18T19:47:18.047Z,4.35
2019-01-18T19:50:48.885Z,4.87
2019-01-18T19:53:36.028Z,3.70
2019-01-18T19:56:23.608Z,4.40
2019-01-18T19:59:10.686Z,4.92
2019-01-18T20:01:58.033Z,4.03
2019-01-18T20:04:47.357Z,4.08
2019-01-18T20:08:01.046Z,3.98
2019-01-18T20:11:04.735Z,5.08
2019-01-18T20:14:13.644Z,4.08
2019-01-18T20:17:04.782Z,4.90
2019-01-18T20:20:07.187Z,4.33
2019-01-18T20:22:59.486Z,4.75
2019-01-18T20:26:09.310Z,4.90
2019-01-18T20:29:26.594Z,5.42
2019-01-18T20:32:11.463Z,4.03
2019-01-18T20:35:11.678Z,4.12
2019-01-18T20:38:09.523Z,3.98
2019-01-18T20:40:56.317Z,4.45
2019-01-18T20:43:46.335Z,3.72
2019-01-18T20:46:52.445Z,4.00
2019-01-18T20:49:56.059Z,4.75
2019-01-18T20:53:10.330Z,4.17
2019-01-18T20:55:59.708Z,4.75
2019-01-18T20:58:52.223Z,4.00
2019-01-18T21:01:57.293Z,9.50
2019-01-18T21:05:04.339Z,8.40
2019-01-18T21:08:04.067Z,4.28
2019-01-18T21:11:23.239Z,4.20
2019-01-18T21:14:19.769Z,4.28
2019-01-18T21:17:08.104Z,4.08
2019-01-18T21:20:12.603Z,4.50
2019-01-18T21:23:20.552Z,4.10
2019-01-18T21:26:05.323Z,4.00
2019-01-18T21:29:14.332Z,4.50
2019-01-18T21:32:31.307Z,4.30
2019-01-18T21:35:32.471Z,3.52
2019-01-18T21:38:43.242Z,4.72
2019-01-18T21:41:39.070Z,4.47
2019-01-18T21:44:40.825Z,5.92
2019-01-18T21:47:44.941Z,5.72
2019-01-18T21:51:07.398Z,5.25
2019-01-18T21:53:47.577Z,4.95
2019-01-18T21:56:47.181Z,4.55
2019-01-18T21:59:47.582Z,5.03
2019-01-18T22:02:47.842Z,6.20
2019-01-18T22:05:55.498Z,5.95
2019-01-18T22:09:04.860Z,5.37
2019-01-18T22:12:19.452Z,4.35
2019-01-18T22:15:34.916Z,3.92
2019-01-18T22:18:32.559Z,3.62
2019-01-18T22:21:23.434Z,4.87
2019-01-18T22:24:37.311Z,4.78
2019-01-18T22:27:36.469Z,3.35
2019-01-18T22:30:48.259Z,2.85
2019-01-18T22:33:43.215Z,3.42
2019-01-18T22:37:11.835Z,2.15
2019-01-18T22:40:45.655Z,3.62
2019-01-18T22:43:46.017Z,3.15
2019-01-18T22:47:09.199Z,4.20
2019-01-18T22:49:52.624Z,3.25
2019-01-18T22:52:43.438Z,3.10
2019-01-18T22:55:37.732Z,3.20
2019-01-18T22:58:48.315Z,2.80
2019-01-18T23:01:52.293Z,3.42
2019-01-18T23:05:09.102Z,3.25
2019-01-18T23:08:41.505Z,3.30
2019-01-18T23:11:37.946Z,3.27
2019-01-18T23:14:32.424Z,3.67
2019-01-18T23:17:39.542Z,3.02
2019-01-18T23:21:04.662Z,3.42
2019-01-18T23:23:43.427Z,3.33
2019-01-18T23:26:56.047Z,2.75
2019-01-18T23:29:49.665Z,2.77
2019-01-18T23:32:48.724Z,2.27
2019-01-18T23:35:48.428Z,2.72
2019-01-18T23:38:47.911Z,2.60
2019-01-18T23:42:04.798Z,2.70
2019-01-18T23:45:25.382Z,2.62
2019-01-18T23:48:13.277Z,2.80
2019-01-18T23:54:51.532Z,3.10
2019-01-18T23:57:54.396Z,3.10
